sensor_id;sensor_type;location;lat;lon;timestamp;temperature;humidity
24686;DHT22;12804;51.176;4.452;2023-02-25T00:02:12;6.80;99.90
24686;DHT22;12804;51.176;4.452;2023-02-25T00:04:39;6.70;99.90
24686;DHT22;12804;51.176;4.452;2023-02-25T00:07:07;6.70;99.90
24686;DHT22;12804;51.176;4.452;2023-02-25T00:09:33;6.50;99.90
24686;DHT22;12804;51.176;4.452;2023-02-25T00:11:59;6.60;99.90
24686;DHT22;12804;51.176;4.452;2023-02-25T00:14:26;6.60;99.90
24686;DHT22;12804;51.176;4.452;2023-02-25T00:16:52;6.70;99.90
24686;DHT22;12804;51.176;4.452;2023-02-25T00:19:23;6.80;99.90
24686;DHT22;12804;51.176;4.452;2023-02-25T00:21:49;6.80;99.90
24686;DHT22;12804;51.176;4.452;2023-02-25T00:24:15;6.90;99.90
24686;DHT22;12804;51.176;4.452;2023-02-25T00:26:42;7.00;99.90
24686;DHT22;12804;51.176;4.452;2023-02-25T00:29:08;6.90;99.90
24686;DHT22;12804;51.176;4.452;2023-02-25T00:31:34;6.90;99.90
24686;DHT22;12804;51.176;4.452;2023-02-25T00:34:00;7.00;99.90
24686;DHT22;12804;51.176;4.452;2023-02-25T00:36:26;7.00;99.90
24686;DHT22;12804;51.176;4.452;2023-02-25T00:38:55;6.90;99.90
24686;DHT22;12804;51.176;4.452;2023-02-25T00:41:25;6.80;99.90
24686;DHT22;12804;51.176;4.452;2023-02-25T00:43:53;6.70;99.90
24686;DHT22;12804;51.176;4.452;2023-02-25T00:46:20;6.60;99.90
24686;DHT22;12804;51.176;4.452;2023-02-25T00:48:46;6.60;99.90
24686;DHT22;12804;51.176;4.452;2023-02-25T00:51:14;6.60;99.90
24686;DHT22;12804;51.176;4.452;2023-02-25T00:53:43;6.60;99.90
24686;DHT22;12804;51.176;4.452;2023-02-25T00:56:11;6.60;99.90
24686;DHT22;12804;51.176;4.452;2023-02-25T00:58:42;6.50;99.90
24686;DHT22;12804;51.176;4.452;2023-02-25T01:01:34;6.60;99.90
24686;DHT22;12804;51.176;4.452;2023-02-25T01:04:03;6.60;99.90
24686;DHT22;12804;51.176;4.452;2023-02-25T01:06:32;6.50;99.90
24686;DHT22;12804;51.176;4.452;2023-02-25T01:08:59;6.40;99.90
24686;DHT22;12804;51.176;4.452;2023-02-25T01:11:27;6.10;99.90
24686;DHT22;12804;51.176;4.452;2023-02-25T01:13:55;6.00;99.90
24686;DHT22;12804;51.176;4.452;2023-02-25T01:16:24;5.90;99.90
24686;DHT22;12804;51.176;4.452;2023-02-25T01:18:52;5.80;99.90
24686;DHT22;12804;51.176;4.452;2023-02-25T01:21:25;5.80;99.90
24686;DHT22;12804;51.176;4.452;2023-02-25T01:23:55;5.90;99.90
24686;DHT22;12804;51.176;4.452;2023-02-25T01:26:25;5.80;99.90
24686;DHT22;12804;51.176;4.452;2023-02-25T01:28:51;5.80;99.90
24686;DHT22;12804;51.176;4.452;2023-02-25T01:31:19;6.00;99.90
24686;DHT22;12804;51.176;4.452;2023-02-25T01:33:50;5.90;99.90
24686;DHT22;12804;51.176;4.452;2023-02-25T01:36:16;6.00;99.90
24686;DHT22;12804;51.176;4.452;2023-02-25T01:38:42;5.80;99.90
24686;DHT22;12804;51.176;4.452;2023-02-25T01:41:08;5.70;99.90
24686;DHT22;12804;51.176;4.452;2023-02-25T01:43:34;5.70;99.90
24686;DHT22;12804;51.176;4.452;2023-02-25T01:46:00;5.80;99.90
24686;DHT22;12804;51.176;4.452;2023-02-25T01:48:33;5.80;99.90
24686;DHT22;12804;51.176;4.452;2023-02-25T01:51:05;5.80;99.90
24686;DHT22;12804;51.176;4.452;2023-02-25T01:53:36;6.00;99.90
24686;DHT22;12804;51.176;4.452;2023-02-25T01:56:03;6.10;99.90
24686;DHT22;12804;51.176;4.452;2023-02-25T01:58:31;6.10;99.90
24686;DHT22;12804;51.176;4.452;2023-02-25T02:00:58;6.10;99.90
24686;DHT22;12804;51.176;4.452;2023-02-25T02:03:27;6.10;99.90
24686;DHT22;12804;51.176;4.452;2023-02-25T02:06:09;6.20;99.90
24686;DHT22;12804;51.176;4.452;2023-02-25T02:08:38;6.40;99.90
24686;DHT22;12804;51.176;4.452;2023-02-25T02:11:05;6.30;99.90
24686;DHT22;12804;51.176;4.452;2023-02-25T02:13:33;6.40;99.90
24686;DHT22;12804;51.176;4.452;2023-02-25T02:18:47;6.40;99.90
24686;DHT22;12804;51.176;4.452;2023-02-25T02:27:03;6.50;99.90
24686;DHT22;12804;51.176;4.452;2023-02-25T02:40:26;6.60;99.90
24686;DHT22;12804;51.176;4.452;2023-02-25T02:48:11;6.80;99.90
24686;DHT22;12804;51.176;4.452;2023-02-25T02:50:47;6.90;99.90
24686;DHT22;12804;51.176;4.452;2023-02-25T02:55:55;7.00;99.90
24686;DHT22;12804;51.176;4.452;2023-02-25T02:58:30;6.90;99.90
24686;DHT22;12804;51.176;4.452;2023-02-25T03:01:02;6.90;99.90
24686;DHT22;12804;51.176;4.452;2023-02-25T03:03:34;6.90;99.90
24686;DHT22;12804;51.176;4.452;2023-02-25T03:06:14;6.90;99.90
24686;DHT22;12804;51.176;4.452;2023-02-25T03:08:46;7.00;99.90
24686;DHT22;12804;51.176;4.452;2023-02-25T03:11:13;6.90;99.90
24686;DHT22;12804;51.176;4.452;2023-02-25T03:13:40;6.90;99.90
24686;DHT22;12804;51.176;4.452;2023-02-25T03:16:09;6.80;99.90
24686;DHT22;12804;51.176;4.452;2023-02-25T03:18:41;6.90;99.90
24686;DHT22;12804;51.176;4.452;2023-02-25T03:21:18;7.00;99.90
24686;DHT22;12804;51.176;4.452;2023-02-25T03:23:47;7.00;99.90
24686;DHT22;12804;51.176;4.452;2023-02-25T03:28:51;6.90;99.90
24686;DHT22;12804;51.176;4.452;2023-02-25T03:34:29;7.00;99.90
24686;DHT22;12804;51.176;4.452;2023-02-25T03:36:59;7.10;99.90
24686;DHT22;12804;51.176;4.452;2023-02-25T03:39:30;7.10;99.90
24686;DHT22;12804;51.176;4.452;2023-02-25T03:42:00;7.00;99.90
24686;DHT22;12804;51.176;4.452;2023-02-25T03:44:35;7.10;99.90
24686;DHT22;12804;51.176;4.452;2023-02-25T03:47:03;7.00;99.90
24686;DHT22;12804;51.176;4.452;2023-02-25T03:49:35;7.00;99.90
24686;DHT22;12804;51.176;4.452;2023-02-25T03:52:05;7.10;99.90
24686;DHT22;12804;51.176;4.452;2023-02-25T03:54:34;7.00;99.90
24686;DHT22;12804;51.176;4.452;2023-02-25T03:57:01;7.00;99.90
24686;DHT22;12804;51.176;4.452;2023-02-25T03:59:27;7.00;99.90
24686;DHT22;12804;51.176;4.452;2023-02-25T04:01:54;7.10;99.90
24686;DHT22;12804;51.176;4.452;2023-02-25T04:04:20;7.10;99.90
24686;DHT22;12804;51.176;4.452;2023-02-25T04:06:47;7.10;99.90
24686;DHT22;12804;51.176;4.452;2023-02-25T04:09:13;7.10;99.90
24686;DHT22;12804;51.176;4.452;2023-02-25T04:11:39;7.20;99.90
24686;DHT22;12804;51.176;4.452;2023-02-25T04:14:05;7.20;99.90
24686;DHT22;12804;51.176;4.452;2023-02-25T04:16:31;7.10;99.90
24686;DHT22;12804;51.176;4.452;2023-02-25T04:18:58;7.00;99.90
24686;DHT22;12804;51.176;4.452;2023-02-25T04:21:29;7.00;99.90
24686;DHT22;12804;51.176;4.452;2023-02-25T04:23:56;7.00;99.90
24686;DHT22;12804;51.176;4.452;2023-02-25T04:26:22;7.00;99.90
24686;DHT22;12804;51.176;4.452;2023-02-25T04:28:48;7.00;99.90
24686;DHT22;12804;51.176;4.452;2023-02-25T04:31:14;7.00;99.90
24686;DHT22;12804;51.176;4.452;2023-02-25T04:33:40;6.90;99.90
24686;DHT22;12804;51.176;4.452;2023-02-25T04:36:21;6.90;99.90
24686;DHT22;12804;51.176;4.452;2023-02-25T04:38:47;7.00;99.90
24686;DHT22;12804;51.176;4.452;2023-02-25T04:41:13;6.90;99.90
24686;DHT22;12804;51.176;4.452;2023-02-25T04:43:39;6.90;99.90
24686;DHT22;12804;51.176;4.452;2023-02-25T04:46:04;7.00;99.90
24686;DHT22;12804;51.176;4.452;2023-02-25T04:48:30;6.90;99.90
24686;DHT22;12804;51.176;4.452;2023-02-25T04:51:00;6.80;99.90
24686;DHT22;12804;51.176;4.452;2023-02-25T04:53:26;6.90;99.90
24686;DHT22;12804;51.176;4.452;2023-02-25T04:55:52;7.00;99.90
24686;DHT22;12804;51.176;4.452;2023-02-25T04:58:18;6.90;99.90
24686;DHT22;12804;51.176;4.452;2023-02-25T05:00:44;6.90;99.90
24686;DHT22;12804;51.176;4.452;2023-02-25T05:03:14;7.00;99.90
24686;DHT22;12804;51.176;4.452;2023-02-25T05:05:40;7.10;99.90
24686;DHT22;12804;51.176;4.452;2023-02-25T05:08:06;7.20;99.90
24686;DHT22;12804;51.176;4.452;2023-02-25T05:10:32;7.10;99.90
24686;DHT22;12804;51.176;4.452;2023-02-25T05:12:58;7.10;99.90
24686;DHT22;12804;51.176;4.452;2023-02-25T05:15:23;7.00;99.90
24686;DHT22;12804;51.176;4.452;2023-02-25T05:17:50;7.00;99.90
24686;DHT22;12804;51.176;4.452;2023-02-25T05:20:16;7.10;99.90
24686;DHT22;12804;51.176;4.452;2023-02-25T05:22:42;7.20;99.90
24686;DHT22;12804;51.176;4.452;2023-02-25T05:25:08;7.20;99.90
24686;DHT22;12804;51.176;4.452;2023-02-25T05:27:34;7.10;99.90
24686;DHT22;12804;51.176;4.452;2023-02-25T05:30:01;7.20;99.90
24686;DHT22;12804;51.176;4.452;2023-02-25T05:32:27;7.10;99.90
24686;DHT22;12804;51.176;4.452;2023-02-25T05:34:54;6.90;99.90
24686;DHT22;12804;51.176;4.452;2023-02-25T05:37:19;6.80;99.90
24686;DHT22;12804;51.176;4.452;2023-02-25T05:39:45;6.70;99.90
24686;DHT22;12804;51.176;4.452;2023-02-25T05:42:11;6.70;99.90
24686;DHT22;12804;51.176;4.452;2023-02-25T05:44:37;6.80;99.90
24686;DHT22;12804;51.176;4.452;2023-02-25T05:47:03;6.90;99.90
24686;DHT22;12804;51.176;4.452;2023-02-25T05:49:28;6.80;99.90
24686;DHT22;12804;51.176;4.452;2023-02-25T05:51:54;6.80;99.90
24686;DHT22;12804;51.176;4.452;2023-02-25T05:54:20;6.90;99.90
24686;DHT22;12804;51.176;4.452;2023-02-25T05:56:50;7.10;99.90
24686;DHT22;12804;51.176;4.452;2023-02-25T05:59:15;7.00;99.90
24686;DHT22;12804;51.176;4.452;2023-02-25T06:01:42;6.90;99.90
24686;DHT22;12804;51.176;4.452;2023-02-25T06:04:08;6.90;99.90
24686;DHT22;12804;51.176;4.452;2023-02-25T06:06:34;6.80;99.90
24686;DHT22;12804;51.176;4.452;2023-02-25T06:09:00;6.90;99.90
24686;DHT22;12804;51.176;4.452;2023-02-25T06:11:28;6.90;99.90
24686;DHT22;12804;51.176;4.452;2023-02-25T06:13:55;6.80;99.90
24686;DHT22;12804;51.176;4.452;2023-02-25T06:16:21;6.80;99.90
24686;DHT22;12804;51.176;4.452;2023-02-25T06:18:50;6.70;99.90
24686;DHT22;12804;51.176;4.452;2023-02-25T06:21:16;6.60;99.90
24686;DHT22;12804;51.176;4.452;2023-02-25T06:23:43;6.50;99.90
24686;DHT22;12804;51.176;4.452;2023-02-25T06:26:11;6.50;99.90
24686;DHT22;12804;51.176;4.452;2023-02-25T06:28:38;6.50;99.90
24686;DHT22;12804;51.176;4.452;2023-02-25T06:31:16;6.60;99.90
24686;DHT22;12804;51.176;4.452;2023-02-25T06:33:43;6.60;99.90
24686;DHT22;12804;51.176;4.452;2023-02-25T06:36:11;6.60;99.90
24686;DHT22;12804;51.176;4.452;2023-02-25T06:38:38;6.60;99.90
24686;DHT22;12804;51.176;4.452;2023-02-25T06:41:08;6.70;99.90
24686;DHT22;12804;51.176;4.452;2023-02-25T06:43:35;6.60;99.90
24686;DHT22;12804;51.176;4.452;2023-02-25T06:46:07;6.60;99.90
24686;DHT22;12804;51.176;4.452;2023-02-25T06:48:33;6.60;99.90
24686;DHT22;12804;51.176;4.452;2023-02-25T06:50:59;6.60;99.90
24686;DHT22;12804;51.176;4.452;2023-02-25T06:53:26;6.70;99.90
24686;DHT22;12804;51.176;4.452;2023-02-25T06:55:52;6.80;99.90
24686;DHT22;12804;51.176;4.452;2023-02-25T06:58:18;6.80;99.90
24686;DHT22;12804;51.176;4.452;2023-02-25T07:00:44;6.90;99.90
24686;DHT22;12804;51.176;4.452;2023-02-25T07:03:11;7.00;99.90
24686;DHT22;12804;51.176;4.452;2023-02-25T07:05:37;7.20;99.90
24686;DHT22;12804;51.176;4.452;2023-02-25T07:08:03;7.20;99.90
24686;DHT22;12804;51.176;4.452;2023-02-25T07:10:29;7.30;99.90
24686;DHT22;12804;51.176;4.452;2023-02-25T07:12:55;7.30;99.90
24686;DHT22;12804;51.176;4.452;2023-02-25T07:15:21;7.40;99.90
24686;DHT22;12804;51.176;4.452;2023-02-25T07:17:47;7.30;99.90
24686;DHT22;12804;51.176;4.452;2023-02-25T07:20:13;7.30;99.90
24686;DHT22;12804;51.176;4.452;2023-02-25T07:22:39;7.10;99.90
24686;DHT22;12804;51.176;4.452;2023-02-25T07:25:08;6.90;99.90
24686;DHT22;12804;51.176;4.452;2023-02-25T07:27:41;6.90;99.90
24686;DHT22;12804;51.176;4.452;2023-02-25T07:30:08;7.00;99.90
24686;DHT22;12804;51.176;4.452;2023-02-25T07:32:35;7.00;99.90
24686;DHT22;12804;51.176;4.452;2023-02-25T07:35:01;7.00;99.90
24686;DHT22;12804;51.176;4.452;2023-02-25T07:37:27;7.10;99.90
24686;DHT22;12804;51.176;4.452;2023-02-25T07:39:52;7.20;99.90
24686;DHT22;12804;51.176;4.452;2023-02-25T07:42:18;7.30;99.90
24686;DHT22;12804;51.176;4.452;2023-02-25T07:44:46;7.50;99.90
24686;DHT22;12804;51.176;4.452;2023-02-25T07:47:12;7.70;99.90
24686;DHT22;12804;51.176;4.452;2023-02-25T07:49:38;7.80;99.90
24686;DHT22;12804;51.176;4.452;2023-02-25T07:52:04;7.70;99.90
24686;DHT22;12804;51.176;4.452;2023-02-25T07:54:30;7.50;99.90
24686;DHT22;12804;51.176;4.452;2023-02-25T07:56:56;7.50;99.90
24686;DHT22;12804;51.176;4.452;2023-02-25T07:59:22;7.70;99.90
24686;DHT22;12804;51.176;4.452;2023-02-25T08:01:47;7.50;99.90
24686;DHT22;12804;51.176;4.452;2023-02-25T08:04:13;7.30;99.90
24686;DHT22;12804;51.176;4.452;2023-02-25T08:06:40;7.20;99.90
24686;DHT22;12804;51.176;4.452;2023-02-25T08:09:08;7.20;99.90
24686;DHT22;12804;51.176;4.452;2023-02-25T08:11:37;7.20;99.90
24686;DHT22;12804;51.176;4.452;2023-02-25T08:14:03;7.30;99.90
24686;DHT22;12804;51.176;4.452;2023-02-25T08:16:31;7.50;99.90
24686;DHT22;12804;51.176;4.452;2023-02-25T08:18:57;7.70;99.90
24686;DHT22;12804;51.176;4.452;2023-02-25T08:21:23;7.80;99.90
24686;DHT22;12804;51.176;4.452;2023-02-25T08:23:50;7.90;99.90
24686;DHT22;12804;51.176;4.452;2023-02-25T08:26:16;8.10;99.90
24686;DHT22;12804;51.176;4.452;2023-02-25T08:28:44;8.10;99.90
24686;DHT22;12804;51.176;4.452;2023-02-25T08:31:10;8.10;99.90
24686;DHT22;12804;51.176;4.452;2023-02-25T08:33:39;8.20;99.90
24686;DHT22;12804;51.176;4.452;2023-02-25T08:36:13;8.20;99.90
24686;DHT22;12804;51.176;4.452;2023-02-25T08:38:39;8.20;99.90
24686;DHT22;12804;51.176;4.452;2023-02-25T08:41:06;8.20;99.90
24686;DHT22;12804;51.176;4.452;2023-02-25T08:43:32;8.30;99.90
24686;DHT22;12804;51.176;4.452;2023-02-25T08:45:58;8.40;99.90
24686;DHT22;12804;51.176;4.452;2023-02-25T08:48:24;8.40;99.90
24686;DHT22;12804;51.176;4.452;2023-02-25T08:50:50;8.40;99.90
24686;DHT22;12804;51.176;4.452;2023-02-25T08:53:16;8.50;99.90
24686;DHT22;12804;51.176;4.452;2023-02-25T08:55:41;8.50;99.90
24686;DHT22;12804;51.176;4.452;2023-02-25T08:58:07;8.40;99.90
24686;DHT22;12804;51.176;4.452;2023-02-25T09:00:33;8.60;99.90
24686;DHT22;12804;51.176;4.452;2023-02-25T09:02:59;8.40;99.90
24686;DHT22;12804;51.176;4.452;2023-02-25T09:05:25;8.30;99.90
24686;DHT22;12804;51.176;4.452;2023-02-25T09:07:51;8.30;99.90
24686;DHT22;12804;51.176;4.452;2023-02-25T09:10:17;8.30;99.90
24686;DHT22;12804;51.176;4.452;2023-02-25T09:12:44;8.30;99.90
24686;DHT22;12804;51.176;4.452;2023-02-25T09:15:12;8.30;99.90
24686;DHT22;12804;51.176;4.452;2023-02-25T09:17:39;8.30;99.90
24686;DHT22;12804;51.176;4.452;2023-02-25T09:20:05;8.50;99.90
24686;DHT22;12804;51.176;4.452;2023-02-25T09:22:33;8.50;99.90
24686;DHT22;12804;51.176;4.452;2023-02-25T09:24:59;8.40;99.90
24686;DHT22;12804;51.176;4.452;2023-02-25T09:27:25;8.40;99.90
24686;DHT22;12804;51.176;4.452;2023-02-25T09:29:51;8.30;99.90
24686;DHT22;12804;51.176;4.452;2023-02-25T09:32:19;8.30;99.90
24686;DHT22;12804;51.176;4.452;2023-02-25T09:34:46;8.30;99.90
24686;DHT22;12804;51.176;4.452;2023-02-25T09:37:14;8.30;99.90
24686;DHT22;12804;51.176;4.452;2023-02-25T09:39:41;8.10;99.90
24686;DHT22;12804;51.176;4.452;2023-02-25T09:42:15;8.10;99.90
24686;DHT22;12804;51.176;4.452;2023-02-25T09:44:50;8.20;99.90
24686;DHT22;12804;51.176;4.452;2023-02-25T09:50:22;8.50;99.90
24686;DHT22;12804;51.176;4.452;2023-02-25T09:52:58;8.70;99.90
24686;DHT22;12804;51.176;4.452;2023-02-25T09:55:35;9.10;99.90
24686;DHT22;12804;51.176;4.452;2023-02-25T10:00:42;9.80;99.90
24686;DHT22;12804;51.176;4.452;2023-02-25T10:08:27;10.50;99.90
24686;DHT22;12804;51.176;4.452;2023-02-25T10:11:06;10.60;99.90
24686;DHT22;12804;51.176;4.452;2023-02-25T10:13:50;10.50;99.90
24686;DHT22;12804;51.176;4.452;2023-02-25T10:22:06;9.80;99.90
24686;DHT22;12804;51.176;4.452;2023-02-25T10:25:04;9.70;99.90
24686;DHT22;12804;51.176;4.452;2023-02-25T10:27:40;9.70;99.90
24686;DHT22;12804;51.176;4.452;2023-02-25T10:32:47;9.30;99.90
24686;DHT22;12804;51.176;4.452;2023-02-25T10:35:18;9.30;99.90
24686;DHT22;12804;51.176;4.452;2023-02-25T10:37:44;9.60;99.90
24686;DHT22;12804;51.176;4.452;2023-02-25T10:40:14;10.20;99.90
24686;DHT22;12804;51.176;4.452;2023-02-25T10:42:47;11.00;99.90
24686;DHT22;12804;51.176;4.452;2023-02-25T10:45:16;11.70;99.90
24686;DHT22;12804;51.176;4.452;2023-02-25T10:47:46;12.40;99.90
24686;DHT22;12804;51.176;4.452;2023-02-25T10:50:23;12.80;99.90
24686;DHT22;12804;51.176;4.452;2023-02-25T10:55:32;12.40;99.90
24686;DHT22;12804;51.176;4.452;2023-02-25T10:58:01;12.30;99.90
24686;DHT22;12804;51.176;4.452;2023-02-25T11:00:33;12.10;99.90
24686;DHT22;12804;51.176;4.452;2023-02-25T11:03:03;11.80;99.90
24686;DHT22;12804;51.176;4.452;2023-02-25T11:05:34;11.50;99.90
24686;DHT22;12804;51.176;4.452;2023-02-25T11:08:03;11.20;99.90
24686;DHT22;12804;51.176;4.452;2023-02-25T11:10:33;10.60;99.90
24686;DHT22;12804;51.176;4.452;2023-02-25T11:12:59;10.20;99.90
24686;DHT22;12804;51.176;4.452;2023-02-25T11:15:36;9.80;99.90
24686;DHT22;12804;51.176;4.452;2023-02-25T11:18:22;9.40;99.90
24686;DHT22;12804;51.176;4.452;2023-02-25T11:21:00;9.00;99.90
24686;DHT22;12804;51.176;4.452;2023-02-25T11:26:17;8.00;99.90
24686;DHT22;12804;51.176;4.452;2023-02-25T11:28:52;7.80;99.90
24686;DHT22;12804;51.176;4.452;2023-02-25T11:31:20;7.40;99.90
24686;DHT22;12804;51.176;4.452;2023-02-25T11:33:57;7.70;99.90
24686;DHT22;12804;51.176;4.452;2023-02-25T11:36:35;8.10;99.90
24686;DHT22;12804;51.176;4.452;2023-02-25T11:39:23;8.50;99.90
24686;DHT22;12804;51.176;4.452;2023-02-25T11:41:54;8.80;99.90
24686;DHT22;12804;51.176;4.452;2023-02-25T11:44:42;9.30;99.90
24686;DHT22;12804;51.176;4.452;2023-02-25T11:47:22;9.70;99.90
24686;DHT22;12804;51.176;4.452;2023-02-25T11:52:38;11.70;99.90
24686;DHT22;12804;51.176;4.452;2023-02-25T11:55:28;13.30;99.90
24686;DHT22;12804;51.176;4.452;2023-02-25T12:05:59;11.70;99.90
24686;DHT22;12804;51.176;4.452;2023-02-25T12:20:50;11.70;99.90
24686;DHT22;12804;51.176;4.452;2023-02-25T12:26:23;14.00;99.90
24686;DHT22;12804;51.176;4.452;2023-02-25T12:29:06;14.10;99.90
24686;DHT22;12804;51.176;4.452;2023-02-25T12:34:52;11.80;99.90
24686;DHT22;12804;51.176;4.452;2023-02-25T12:42:46;10.10;99.90
24686;DHT22;12804;51.176;4.452;2023-02-25T12:50:44;11.90;99.90
24686;DHT22;12804;51.176;4.452;2023-02-25T12:53:40;11.90;99.90
24686;DHT22;12804;51.176;4.452;2023-02-25T12:56:40;12.50;99.90
24686;DHT22;12804;51.176;4.452;2023-02-25T12:59:39;12.10;99.90
24686;DHT22;12804;51.176;4.452;2023-02-25T13:07:45;11.20;99.90
24686;DHT22;12804;51.176;4.452;2023-02-25T13:16:32;12.60;99.90
24686;DHT22;12804;51.176;4.452;2023-02-25T13:25:01;12.50;99.90
24686;DHT22;12804;51.176;4.452;2023-02-25T13:27:52;12.10;99.90
24686;DHT22;12804;51.176;4.452;2023-02-25T13:33:36;12.30;99.90
24686;DHT22;12804;51.176;4.452;2023-02-25T13:53:04;10.30;99.90
24686;DHT22;12804;51.176;4.452;2023-02-25T14:01:21;9.80;99.90
24686;DHT22;12804;51.176;4.452;2023-02-25T14:04:23;9.80;99.90
24686;DHT22;12804;51.176;4.452;2023-02-25T14:15:17;11.10;99.90
24686;DHT22;12804;51.176;4.452;2023-02-25T14:17:52;11.60;99.90
24686;DHT22;12804;51.176;4.452;2023-02-25T14:20:51;11.90;99.90
24686;DHT22;12804;51.176;4.452;2023-02-25T14:23:58;12.30;99.90
24686;DHT22;12804;51.176;4.452;2023-02-25T14:26:41;13.40;99.90
24686;DHT22;12804;51.176;4.452;2023-02-25T14:29:13;14.50;99.90
24686;DHT22;12804;51.176;4.452;2023-02-25T14:31:50;15.90;99.90
24686;DHT22;12804;51.176;4.452;2023-02-25T14:45:14;16.00;99.90
24686;DHT22;12804;51.176;4.452;2023-02-25T14:48:02;16.90;99.90
24686;DHT22;12804;51.176;4.452;2023-02-25T14:50:36;16.80;99.90
24686;DHT22;12804;51.176;4.452;2023-02-25T15:07:16;12.20;99.90
24686;DHT22;12804;51.176;4.452;2023-02-25T15:21:40;10.50;99.90
24686;DHT22;12804;51.176;4.452;2023-02-25T15:26:58;10.10;99.90
24686;DHT22;12804;51.176;4.452;2023-02-25T15:32:16;10.30;99.90
24686;DHT22;12804;51.176;4.452;2023-02-25T15:35:12;10.30;99.90
24686;DHT22;12804;51.176;4.452;2023-02-25T15:42:54;10.20;99.90
24686;DHT22;12804;51.176;4.452;2023-02-25T16:06:04;8.70;99.90
24686;DHT22;12804;51.176;4.452;2023-02-25T16:08:37;8.60;99.90
24686;DHT22;12804;51.176;4.452;2023-02-25T16:11:06;8.50;99.90
24686;DHT22;12804;51.176;4.452;2023-02-25T16:13:40;8.50;99.90
24686;DHT22;12804;51.176;4.452;2023-02-25T16:16:09;8.50;99.90
24686;DHT22;12804;51.176;4.452;2023-02-25T16:18:41;8.30;99.90
24686;DHT22;12804;51.176;4.452;2023-02-25T16:21:23;8.30;99.90
24686;DHT22;12804;51.176;4.452;2023-02-25T16:23:53;8.20;99.90
24686;DHT22;12804;51.176;4.452;2023-02-25T16:26:54;8.10;99.90
24686;DHT22;12804;51.176;4.452;2023-02-25T16:32:15;7.90;99.90
24686;DHT22;12804;51.176;4.452;2023-02-25T16:34:50;7.80;99.90
24686;DHT22;12804;51.176;4.452;2023-02-25T16:37:44;7.70;99.90
24686;DHT22;12804;51.176;4.452;2023-02-25T16:40:27;7.70;99.90
24686;DHT22;12804;51.176;4.452;2023-02-25T16:42:56;7.70;99.90
24686;DHT22;12804;51.176;4.452;2023-02-25T16:46:10;7.70;99.90
24686;DHT22;12804;51.176;4.452;2023-02-25T16:48:16;7.60;99.90
24686;DHT22;12804;51.176;4.452;2023-02-25T16:50:48;7.50;99.90
24686;DHT22;12804;51.176;4.452;2023-02-25T16:53:18;7.40;99.90
24686;DHT22;12804;51.176;4.452;2023-02-25T16:55:46;7.40;99.90
24686;DHT22;12804;51.176;4.452;2023-02-25T17:00:57;7.30;99.90
24686;DHT22;12804;51.176;4.452;2023-02-25T17:03:29;7.30;99.90
24686;DHT22;12804;51.176;4.452;2023-02-25T17:06:14;7.40;99.90
24686;DHT22;12804;51.176;4.452;2023-02-25T17:08:46;7.30;99.90
24686;DHT22;12804;51.176;4.452;2023-02-25T17:11:17;7.20;99.90
24686;DHT22;12804;51.176;4.452;2023-02-25T17:13:44;7.10;99.90
24686;DHT22;12804;51.176;4.452;2023-02-25T17:16:34;7.00;99.90
24686;DHT22;12804;51.176;4.452;2023-02-25T17:19:04;6.90;99.90
24686;DHT22;12804;51.176;4.452;2023-02-25T17:21:39;6.90;99.90
24686;DHT22;12804;51.176;4.452;2023-02-25T17:24:14;6.80;99.90
24686;DHT22;12804;51.176;4.452;2023-02-25T17:26:43;6.70;99.90
24686;DHT22;12804;51.176;4.452;2023-02-25T17:29:12;6.70;99.90
24686;DHT22;12804;51.176;4.452;2023-02-25T17:31:50;6.60;99.90
24686;DHT22;12804;51.176;4.452;2023-02-25T17:34:27;6.60;99.90
24686;DHT22;12804;51.176;4.452;2023-02-25T17:36:55;6.40;99.90
24686;DHT22;12804;51.176;4.452;2023-02-25T17:39:22;6.40;99.90
24686;DHT22;12804;51.176;4.452;2023-02-25T17:41:49;6.40;99.90
24686;DHT22;12804;51.176;4.452;2023-02-25T17:47:04;6.20;99.90
24686;DHT22;12804;51.176;4.452;2023-02-25T17:49:33;6.20;99.90
24686;DHT22;12804;51.176;4.452;2023-02-25T17:52:24;6.20;99.90
24686;DHT22;12804;51.176;4.452;2023-02-25T17:55:07;6.20;99.90
24686;DHT22;12804;51.176;4.452;2023-02-25T17:57:45;6.20;99.90
24686;DHT22;12804;51.176;4.452;2023-02-25T18:00:20;6.10;99.90
24686;DHT22;12804;51.176;4.452;2023-02-25T18:05:48;6.00;99.90
24686;DHT22;12804;51.176;4.452;2023-02-25T18:08:27;5.90;99.90
24686;DHT22;12804;51.176;4.452;2023-02-25T18:11:03;5.80;99.90
24686;DHT22;12804;51.176;4.452;2023-02-25T18:13:42;5.80;99.90
24686;DHT22;12804;51.176;4.452;2023-02-25T18:16:37;5.80;99.90
24686;DHT22;12804;51.176;4.452;2023-02-25T18:19:27;5.80;99.90
24686;DHT22;12804;51.176;4.452;2023-02-25T18:21:54;5.80;99.90
24686;DHT22;12804;51.176;4.452;2023-02-25T18:24:26;5.80;99.90
24686;DHT22;12804;51.176;4.452;2023-02-25T18:29:40;5.70;99.90
24686;DHT22;12804;51.176;4.452;2023-02-25T18:32:06;5.60;99.90
24686;DHT22;12804;51.176;4.452;2023-02-25T18:34:32;5.60;99.90
24686;DHT22;12804;51.176;4.452;2023-02-25T18:36:57;5.60;99.90
24686;DHT22;12804;51.176;4.452;2023-02-25T18:39:24;5.50;99.90
24686;DHT22;12804;51.176;4.452;2023-02-25T18:41:51;5.50;99.90
24686;DHT22;12804;51.176;4.452;2023-02-25T18:44:17;5.50;99.90
24686;DHT22;12804;51.176;4.452;2023-02-25T18:46:43;5.40;99.90
24686;DHT22;12804;51.176;4.452;2023-02-25T18:49:09;5.40;99.90
24686;DHT22;12804;51.176;4.452;2023-02-25T18:51:35;5.40;99.90
24686;DHT22;12804;51.176;4.452;2023-02-25T18:54:00;5.30;99.90
24686;DHT22;12804;51.176;4.452;2023-02-25T18:56:26;5.20;99.90
24686;DHT22;12804;51.176;4.452;2023-02-25T18:58:52;5.20;99.90
24686;DHT22;12804;51.176;4.452;2023-02-25T19:01:25;5.10;99.90
24686;DHT22;12804;51.176;4.452;2023-02-25T19:03:52;5.20;99.90
24686;DHT22;12804;51.176;4.452;2023-02-25T19:06:24;5.30;99.90
24686;DHT22;12804;51.176;4.452;2023-02-25T19:08:50;5.20;99.90
24686;DHT22;12804;51.176;4.452;2023-02-25T19:11:26;5.20;99.90
24686;DHT22;12804;51.176;4.452;2023-02-25T19:13:54;5.10;99.90
24686;DHT22;12804;51.176;4.452;2023-02-25T19:16:20;5.10;99.90
24686;DHT22;12804;51.176;4.452;2023-02-25T19:18:47;5.00;99.90
24686;DHT22;12804;51.176;4.452;2023-02-25T19:21:16;4.90;99.90
24686;DHT22;12804;51.176;4.452;2023-02-25T19:23:43;4.90;99.90
24686;DHT22;12804;51.176;4.452;2023-02-25T19:26:09;4.90;99.90
24686;DHT22;12804;51.176;4.452;2023-02-25T19:28:36;4.80;99.90
24686;DHT22;12804;51.176;4.452;2023-02-25T19:31:06;4.80;99.90
24686;DHT22;12804;51.176;4.452;2023-02-25T19:33:32;4.80;99.90
24686;DHT22;12804;51.176;4.452;2023-02-25T19:36:02;4.80;99.90
24686;DHT22;12804;51.176;4.452;2023-02-25T19:38:29;4.70;99.90
24686;DHT22;12804;51.176;4.452;2023-02-25T19:41:00;4.80;99.90
24686;DHT22;12804;51.176;4.452;2023-02-25T19:43:26;4.70;99.90
24686;DHT22;12804;51.176;4.452;2023-02-25T19:45:52;4.60;99.90
24686;DHT22;12804;51.176;4.452;2023-02-25T19:48:19;4.60;99.90
24686;DHT22;12804;51.176;4.452;2023-02-25T19:50:44;4.60;99.90
24686;DHT22;12804;51.176;4.452;2023-02-25T19:53:10;4.50;99.90
24686;DHT22;12804;51.176;4.452;2023-02-25T19:55:36;4.50;99.90
24686;DHT22;12804;51.176;4.452;2023-02-25T19:58:04;4.40;99.90